createdAt,value
2022-12-28T00:04:15.980Z,100782.66
2022-12-28T00:09:18.841Z,100791.75
2022-12-28T00:14:23.020Z,100777.16
2022-12-28T00:19:25.862Z,100767.31
2022-12-28T00:24:28.599Z,100766.47
2022-12-28T00:29:32.707Z,100756.41
2022-12-28T00:34:35.530Z,100753.28
2022-12-28T00:39:38.278Z,100733.72
2022-12-28T00:44:42.809Z,100730.69
2022-12-28T00:49:45.506Z,100727.03
2022-12-28T00:54:48.210Z,100725.06
2022-12-28T00:59:52.295Z,100725.06
2022-12-28T01:04:55.014Z,100724.66
2022-12-28T01:09:57.796Z,100724.22
2022-12-28T01:15:01.892Z,100728.75
2022-12-28T01:20:05.655Z,100727.66
2022-12-28T01:25:09.262Z,100720.31
2022-12-28T01:30:15.882Z,100712.84
2022-12-28T01:35:18.787Z,100703.88
2022-12-28T01:40:21.591Z,100692.94
2022-12-28T01:45:25.833Z,100685.94
2022-12-28T01:50:30.488Z,100675.78
2022-12-28T01:55:37.566Z,100670.59
2022-12-28T02:00:42.284Z,100651.34
2022-12-28T02:05:49.487Z,100639.78
2022-12-28T02:10:53.144Z,100622.38
2022-12-28T02:15:57.307Z,100602.94
2022-12-28T02:21:26.361Z,100575.56
2022-12-28T02:26:47.127Z,100573.72
2022-12-28T02:31:59.326Z,100566.59
2022-12-28T02:37:08.748Z,100561.03
2022-12-28T02:42:13.665Z,100542.09
2022-12-28T02:47:35.877Z,100547.25
2022-12-28T02:53:06.749Z,100534.91
2022-12-28T02:58:30.288Z,100526.63
2022-12-28T03:03:43.417Z,100514.97
2022-12-28T03:08:57.282Z,100501.31
2022-12-28T03:14:04.610Z,100499.47
2022-12-28T03:19:29.957Z,100491.63
2022-12-28T03:24:58.289Z,100485.34
2022-12-28T03:30:25.520Z,100478.84
2022-12-28T03:35:41.986Z,100466.19
2022-12-28T03:40:50.538Z,100453.53
2022-12-28T03:46:01.359Z,100437.31
2022-12-28T03:51:06.386Z,100414.84
2022-12-28T03:56:11.752Z,100412.03
2022-12-28T04:01:16.331Z,100407.59
2022-12-28T04:06:21.504Z,100401.34
2022-12-28T04:11:25.206Z,100376.88
2022-12-28T04:16:30.086Z,100365.13
2022-12-28T04:21:34.252Z,100348.03
2022-12-28T04:26:37.183Z,100349.13
2022-12-28T04:31:40.294Z,100326.00
2022-12-28T04:36:48.310Z,100333.22
2022-12-28T04:41:54.584Z,100324.00
2022-12-28T04:46:57.468Z,100317.78
2022-12-28T04:52:01.638Z,100330.63
2022-12-28T04:57:04.483Z,100316.91
2022-12-28T05:02:07.407Z,100319.34
2022-12-28T05:07:11.590Z,100324.38
2022-12-28T05:12:14.402Z,100331.00
2022-12-28T05:17:17.237Z,100328.28
2022-12-28T05:22:21.346Z,100329.09
2022-12-28T05:27:24.137Z,100322.47
2022-12-28T05:32:26.999Z,100316.88
2022-12-28T05:37:31.214Z,100308.69
2022-12-28T05:42:35.643Z,100302.22
2022-12-28T05:47:38.402Z,100282.28
2022-12-28T05:52:42.491Z,100271.19
2022-12-28T05:57:45.424Z,100272.59
2022-12-28T06:02:48.470Z,100276.69
2022-12-28T06:07:54.150Z,100272.56
2022-12-28T06:12:56.935Z,100273.06
2022-12-28T06:17:59.806Z,100261.84
2022-12-28T06:23:03.903Z,100245.94
2022-12-28T06:28:06.654Z,100233.84
2022-12-28T06:33:09.427Z,100226.97
2022-12-28T06:38:13.553Z,100211.13
2022-12-28T06:43:17.254Z,100199.81
2022-12-28T06:48:20.012Z,100195.59
2022-12-28T06:53:24.334Z,100181.53
2022-12-28T06:58:28.034Z,100183.56
2022-12-28T07:03:30.912Z,100179.34
2022-12-28T07:08:35.421Z,100163.44
2022-12-28T07:13:38.609Z,100165.56
2022-12-28T07:18:42.065Z,100164.03
2022-12-28T07:23:46.230Z,100159.81
2022-12-28T07:28:50.663Z,100149.38
2022-12-28T07:33:55.436Z,100134.63
2022-12-28T07:39:00.338Z,100142.59
2022-12-28T07:44:03.275Z,100143.78
2022-12-28T07:49:06.938Z,100140.31
2022-12-28T07:54:11.268Z,100134.28
2022-12-28T07:59:14.230Z,100133.41
2022-12-28T08:04:18.332Z,100120.06
2022-12-28T08:09:22.733Z,100116.63
2022-12-28T08:14:25.428Z,100113.19
2022-12-28T08:19:28.209Z,100111.44
2022-12-28T08:24:32.326Z,100102.63
2022-12-28T08:29:35.066Z,100107.13
2022-12-28T08:34:37.841Z,100108.97
2022-12-28T08:39:41.965Z,100107.03
2022-12-28T08:44:44.688Z,100103.69
2022-12-28T08:49:48.690Z,100113.78
2022-12-28T08:54:52.775Z,100097.66
2022-12-28T08:59:55.549Z,100105.59
2022-12-28T09:04:58.587Z,100102.19
2022-12-28T09:10:02.784Z,100102.47
2022-12-28T09:15:06.544Z,100109.28
2022-12-28T09:20:10.417Z,100109.84
2022-12-28T09:25:14.643Z,100110.91
2022-12-28T09:30:17.864Z,100103.91
2022-12-28T09:35:20.703Z,100093.81
2022-12-28T09:40:24.987Z,100087.28
2022-12-28T09:45:28.393Z,100087.28
2022-12-28T09:50:33.170Z,100078.03
2022-12-28T09:55:39.599Z,100068.38
2022-12-28T10:00:45.510Z,100067.66
2022-12-28T10:05:48.998Z,100058.72
2022-12-28T10:10:54.376Z,100038.84
2022-12-28T10:15:57.581Z,100043.47
2022-12-28T10:21:01.216Z,100048.84
2022-12-28T10:26:06.803Z,100036.56
2022-12-28T10:31:11.256Z,100048.00
2022-12-28T10:36:15.681Z,100037.34
2022-12-28T10:41:22.779Z,100034.19
2022-12-28T10:46:26.615Z,100021.31
2022-12-28T10:51:31.047Z,100017.44
2022-12-28T10:56:48.982Z,100006.13
2022-12-28T11:01:52.225Z,100005.97
2022-12-28T11:06:57.343Z,100005.03
2022-12-28T11:12:23.252Z,99990.09
2022-12-28T11:17:28.113Z,100005.38
2022-12-28T11:22:31.914Z,99994.00
2022-12-28T11:27:37.334Z,99993.00
2022-12-28T11:32:47.445Z,99987.97
2022-12-28T11:37:51.737Z,99980.44
2022-12-28T11:42:57.255Z,99967.72
2022-12-28T11:48:33.436Z,99977.19
2022-12-28T11:53:54.449Z,99976.66
2022-12-28T11:59:07.480Z,99977.44
2022-12-28T12:04:38.493Z,99977.13
2022-12-28T12:09:44.193Z,99974.34
2022-12-28T12:14:53.945Z,99971.34
2022-12-28T12:20:01.270Z,99960.03
2022-12-28T12:25:10.332Z,99965.19
2022-12-28T12:30:18.539Z,99965.84
2022-12-28T12:35:23.776Z,99963.31
2022-12-28T12:40:51.433Z,99956.31
2022-12-28T12:46:08.893Z,99943.03
2022-12-28T12:51:26.814Z,99944.78
2022-12-28T12:56:40.796Z,99941.00
2022-12-28T13:01:52.080Z,99931.97
2022-12-28T13:06:59.207Z,99928.88
2022-12-28T13:12:03.290Z,99927.03
2022-12-28T13:17:15.649Z,99920.91
2022-12-28T13:22:29.908Z,99913.63
2022-12-28T13:27:36.194Z,99914.38
2022-12-28T13:32:52.224Z,99913.19
2022-12-28T13:38:03.879Z,99911.44
2022-12-28T13:43:27.037Z,99914.06
2022-12-28T13:48:32.759Z,99898.69
2022-12-28T13:53:35.826Z,99896.97
2022-12-28T13:58:47.971Z,99901.47
2022-12-28T14:04:08.848Z,99910.41
2022-12-28T14:09:23.520Z,99895.34
2022-12-28T14:14:26.437Z,99896.97
2022-12-28T14:19:30.782Z,99891.47
2022-12-28T14:24:33.531Z,99896.84
2022-12-28T14:29:36.376Z,99893.31
2022-12-28T14:34:40.741Z,99894.28
2022-12-28T14:39:46.457Z,99891.72
2022-12-28T14:44:54.248Z,99891.72
2022-12-28T14:50:01.200Z,99893.41
2022-12-28T14:55:30.363Z,99896.09
2022-12-28T15:00:35.405Z,99893.63
2022-12-28T15:05:43.455Z,99890.19
2022-12-28T15:10:52.551Z,99885.69
2022-12-28T15:15:58.209Z,99880.41
2022-12-28T15:21:06.713Z,99866.56
2022-12-28T15:26:09.963Z,99866.00
2022-12-28T15:31:14.704Z,99862.56
2022-12-28T15:36:21.118Z,99862.34
2022-12-28T15:41:41.728Z,99857.84
2022-12-28T15:46:44.909Z,99848.06
2022-12-28T15:51:49.245Z,99857.09
2022-12-28T15:56:53.894Z,99853.31
2022-12-28T16:01:56.723Z,99855.28
2022-12-28T16:07:00.936Z,99841.84
2022-12-28T16:12:03.931Z,99851.72
2022-12-28T16:17:06.770Z,99853.56
2022-12-28T16:22:10.880Z,99846.34
2022-12-28T16:27:13.718Z,99852.59
2022-12-28T16:32:16.478Z,99845.50
2022-12-28T16:37:20.759Z,99854.41
2022-12-28T16:42:23.520Z,99847.22
2022-12-28T16:47:26.290Z,99854.28
2022-12-28T16:52:30.417Z,99850.84
2022-12-28T16:57:33.178Z,99832.91
2022-12-28T17:02:36.150Z,99844.31
2022-12-28T17:07:40.433Z,99835.63
2022-12-28T17:12:43.232Z,99829.47
2022-12-28T17:17:46.101Z,99835.88
2022-12-28T17:22:50.293Z,99840.66
2022-12-28T17:27:53.237Z,99834.84
2022-12-28T17:32:56.302Z,99840.00
2022-12-28T17:38:00.597Z,99834.16
2022-12-28T17:43:04.186Z,99831.97
2022-12-28T17:48:07.310Z,99819.97
2022-12-28T17:53:11.555Z,99801.41
2022-12-28T17:58:14.492Z,99788.19
2022-12-28T18:03:17.255Z,99792.25
2022-12-28T18:08:22.940Z,99781.88
2022-12-28T18:13:25.924Z,99781.13
2022-12-28T18:18:28.692Z,99779.66
2022-12-28T18:23:34.194Z,99767.19
2022-12-28T18:28:37.417Z,99766.63
2022-12-28T18:33:40.192Z,99772.09
2022-12-28T18:38:44.861Z,99765.13
2022-12-28T18:43:47.973Z,99759.34
2022-12-28T18:48:50.706Z,99748.44
2022-12-28T18:53:54.837Z,99738.84
2022-12-28T18:58:58.789Z,99734.09
2022-12-28T19:04:01.915Z,99722.16
2022-12-28T19:09:07.778Z,99721.94
2022-12-28T19:14:13.251Z,99710.53
2022-12-28T19:19:17.211Z,99706.22
2022-12-28T19:24:22.451Z,99693.47
2022-12-28T19:29:25.352Z,99705.72
2022-12-28T19:34:28.144Z,99681.69
2022-12-28T19:39:32.318Z,99675.28
2022-12-28T19:44:35.044Z,99660.19
2022-12-28T19:49:37.976Z,99658.97
2022-12-28T19:54:42.416Z,99647.88
2022-12-28T19:59:45.177Z,99650.34
2022-12-28T20:04:47.997Z,99646.41
2022-12-28T20:09:52.298Z,99645.19
2022-12-28T20:14:55.100Z,99632.53
2022-12-28T20:19:57.839Z,99632.88
2022-12-28T20:25:02.458Z,99622.72
2022-12-28T20:30:06.074Z,99607.59
2022-12-28T20:35:09.042Z,99601.66
2022-12-28T20:40:13.794Z,99583.81
2022-12-28T20:45:16.581Z,99586.19
2022-12-28T20:50:19.438Z,99573.44
2022-12-28T20:55:23.567Z,99561.66
2022-12-28T21:00:26.432Z,99544.91
2022-12-28T21:05:29.296Z,99544.53
2022-12-28T21:10:33.490Z,99536.91
2022-12-28T21:15:40.624Z,99523.63
2022-12-28T21:20:46.140Z,99517.50
2022-12-28T21:25:50.237Z,99507.38
2022-12-28T21:30:56.264Z,99508.50
2022-12-28T21:36:00.465Z,99496.13
2022-12-28T21:41:07.740Z,99494.16
2022-12-28T21:46:13.169Z,99488.03
2022-12-28T21:56:50.741Z,99465.31
2022-12-28T22:02:11.695Z,99477.81
2022-12-28T22:07:16.539Z,99461.97
2022-12-28T22:12:36.924Z,99462.53
2022-12-28T22:17:39.938Z,99453.16
2022-12-28T22:22:44.582Z,99458.53
2022-12-28T22:27:48.753Z,99456.97
2022-12-28T22:32:51.661Z,99455.00
2022-12-28T22:37:54.606Z,99446.97
2022-12-28T22:42:58.776Z,99441.78
2022-12-28T22:48:01.499Z,99441.38
2022-12-28T22:53:04.314Z,99440.97
2022-12-28T22:58:08.619Z,99429.31
2022-12-28T23:03:11.413Z,99432.41
2022-12-28T23:08:14.163Z,99419.47
2022-12-28T23:13:18.493Z,99399.59
2022-12-28T23:18:38.743Z,99394.72
2022-12-28T23:23:58.887Z,99386.06
2022-12-28T23:29:03.145Z,99375.28
2022-12-28T23:34:05.927Z,99367.47
2022-12-28T23:39:08.719Z,99357.66
2022-12-28T23:44:12.889Z,99339.63
2022-12-28T23:49:17.156Z,99320.44
2022-12-28T23:54:20.935Z,99312.63
2022-12-28T23:59:25.200Z,99319.59
